sensor_id;sensor_type;location;lat;lon;timestamp;P1;durP1;ratioP1;P2;durP2;ratioP2
1206;SDS011;593;53.184;8.216;2022-07-06T00:00:30;3.23;;;0.73;;
1206;SDS011;593;53.184;8.216;2022-07-06T00:02:55;2.50;;;0.83;;
1206;SDS011;593;53.184;8.216;2022-07-06T00:05:20;0.80;;;0.70;;
1206;SDS011;593;53.184;8.216;2022-07-06T00:07:46;2.47;;;0.70;;
1206;SDS011;593;53.184;8.216;2022-07-06T00:10:11;1.13;;;0.80;;
1206;SDS011;593;53.184;8.216;2022-07-06T00:12:37;1.10;;;0.60;;
1206;SDS011;593;53.184;8.216;2022-07-06T00:15:02;2.70;;;0.63;;
1206;SDS011;593;53.184;8.216;2022-07-06T00:17:28;1.87;;;0.70;;
1206;SDS011;593;53.184;8.216;2022-07-06T00:19:53;1.23;;;1.10;;
1206;SDS011;593;53.184;8.216;2022-07-06T00:22:19;1.87;;;0.80;;
1206;SDS011;593;53.184;8.216;2022-07-06T00:24:44;2.10;;;0.80;;
1206;SDS011;593;53.184;8.216;2022-07-06T00:27:09;1.23;;;0.70;;
1206;SDS011;593;53.184;8.216;2022-07-06T00:29:35;2.03;;;0.97;;
1206;SDS011;593;53.184;8.216;2022-07-06T00:32:00;2.43;;;1.43;;
1206;SDS011;593;53.184;8.216;2022-07-06T00:34:26;1.50;;;0.70;;
1206;SDS011;593;53.184;8.216;2022-07-06T00:36:51;1.53;;;0.73;;
1206;SDS011;593;53.184;8.216;2022-07-06T00:39:16;3.43;;;0.80;;
1206;SDS011;593;53.184;8.216;2022-07-06T00:41:44;2.80;;;0.60;;
1206;SDS011;593;53.184;8.216;2022-07-06T00:44:09;0.70;;;0.60;;
1206;SDS011;593;53.184;8.216;2022-07-06T00:46:35;0.90;;;0.80;;
1206;SDS011;593;53.184;8.216;2022-07-06T00:49:00;1.27;;;0.87;;
1206;SDS011;593;53.184;8.216;2022-07-06T00:51:30;1.30;;;1.17;;
1206;SDS011;593;53.184;8.216;2022-07-06T00:53:58;1.50;;;0.80;;
1206;SDS011;593;53.184;8.216;2022-07-06T00:56:26;1.00;;;0.50;;
1206;SDS011;593;53.184;8.216;2022-07-06T00:58:55;1.90;;;0.70;;
1206;SDS011;593;53.184;8.216;2022-07-06T01:01:20;1.00;;;0.70;;
1206;SDS011;593;53.184;8.216;2022-07-06T01:03:46;1.73;;;0.80;;
1206;SDS011;593;53.184;8.216;2022-07-06T01:06:11;1.90;;;0.70;;
1206;SDS011;593;53.184;8.216;2022-07-06T01:08:37;1.57;;;0.80;;
1206;SDS011;593;53.184;8.216;2022-07-06T01:11:03;1.23;;;0.70;;
1206;SDS011;593;53.184;8.216;2022-07-06T01:13:29;2.13;;;0.80;;
1206;SDS011;593;53.184;8.216;2022-07-06T01:15:55;1.07;;;0.97;;
1206;SDS011;593;53.184;8.216;2022-07-06T01:18:21;2.03;;;0.70;;
1206;SDS011;593;53.184;8.216;2022-07-06T01:20:46;0.90;;;0.80;;
1206;SDS011;593;53.184;8.216;2022-07-06T01:23:11;1.30;;;0.80;;
1206;SDS011;593;53.184;8.216;2022-07-06T01:25:37;3.20;;;1.00;;
1206;SDS011;593;53.184;8.216;2022-07-06T01:28:02;2.17;;;0.90;;
1206;SDS011;593;53.184;8.216;2022-07-06T01:30:28;0.90;;;0.70;;
1206;SDS011;593;53.184;8.216;2022-07-06T01:32:54;1.43;;;0.80;;
1206;SDS011;593;53.184;8.216;2022-07-06T01:35:19;1.53;;;0.90;;
1206;SDS011;593;53.184;8.216;2022-07-06T01:37:45;1.30;;;0.70;;
1206;SDS011;593;53.184;8.216;2022-07-06T01:40:10;1.07;;;0.77;;
1206;SDS011;593;53.184;8.216;2022-07-06T01:42:36;2.20;;;1.00;;
1206;SDS011;593;53.184;8.216;2022-07-06T01:45:03;1.90;;;1.00;;
1206;SDS011;593;53.184;8.216;2022-07-06T01:47:29;1.20;;;0.83;;
1206;SDS011;593;53.184;8.216;2022-07-06T01:49:57;2.67;;;1.03;;
1206;SDS011;593;53.184;8.216;2022-07-06T01:52:24;3.20;;;1.10;;
1206;SDS011;593;53.184;8.216;2022-07-06T01:54:50;2.20;;;1.20;;
1206;SDS011;593;53.184;8.216;2022-07-06T01:57:15;1.37;;;1.30;;
1206;SDS011;593;53.184;8.216;2022-07-06T01:59:42;1.73;;;0.83;;
1206;SDS011;593;53.184;8.216;2022-07-06T02:02:07;3.27;;;2.00;;
1206;SDS011;593;53.184;8.216;2022-07-06T02:04:32;1.23;;;0.90;;
1206;SDS011;593;53.184;8.216;2022-07-06T02:06:58;2.40;;;1.10;;
1206;SDS011;593;53.184;8.216;2022-07-06T02:09:23;2.10;;;0.80;;
1206;SDS011;593;53.184;8.216;2022-07-06T02:11:48;1.00;;;0.90;;
1206;SDS011;593;53.184;8.216;2022-07-06T02:14:14;1.33;;;1.00;;
1206;SDS011;593;53.184;8.216;2022-07-06T02:16:39;5.00;;;1.03;;
1206;SDS011;593;53.184;8.216;2022-07-06T02:19:04;1.23;;;0.80;;
1206;SDS011;593;53.184;8.216;2022-07-06T02:21:30;2.30;;;0.90;;
1206;SDS011;593;53.184;8.216;2022-07-06T02:23:55;5.53;;;0.90;;
1206;SDS011;593;53.184;8.216;2022-07-06T02:26:21;1.43;;;1.20;;
1206;SDS011;593;53.184;8.216;2022-07-06T02:28:46;1.97;;;0.90;;
1206;SDS011;593;53.184;8.216;2022-07-06T02:31:12;0.80;;;0.80;;
1206;SDS011;593;53.184;8.216;2022-07-06T02:33:39;1.17;;;0.90;;
1206;SDS011;593;53.184;8.216;2022-07-06T02:36:05;2.20;;;1.00;;
1206;SDS011;593;53.184;8.216;2022-07-06T02:38:30;2.23;;;0.80;;
1206;SDS011;593;53.184;8.216;2022-07-06T02:40:55;1.00;;;1.00;;
1206;SDS011;593;53.184;8.216;2022-07-06T02:43:21;1.43;;;1.00;;
1206;SDS011;593;53.184;8.216;2022-07-06T02:45:46;1.20;;;0.87;;
1206;SDS011;593;53.184;8.216;2022-07-06T02:48:12;1.30;;;0.90;;
1206;SDS011;593;53.184;8.216;2022-07-06T02:50:37;3.70;;;1.03;;
1206;SDS011;593;53.184;8.216;2022-07-06T02:53:02;0.90;;;0.80;;
1206;SDS011;593;53.184;8.216;2022-07-06T02:55:28;1.63;;;1.17;;
1206;SDS011;593;53.184;8.216;2022-07-06T02:57:54;2.20;;;1.00;;
1206;SDS011;593;53.184;8.216;2022-07-06T03:00:19;1.83;;;1.00;;
1206;SDS011;593;53.184;8.216;2022-07-06T03:02:44;2.83;;;0.80;;
1206;SDS011;593;53.184;8.216;2022-07-06T03:05:10;3.87;;;0.80;;
1206;SDS011;593;53.184;8.216;2022-07-06T03:07:35;1.33;;;0.77;;
1206;SDS011;593;53.184;8.216;2022-07-06T03:10:01;2.20;;;1.00;;
1206;SDS011;593;53.184;8.216;2022-07-06T03:12:26;1.97;;;1.00;;
1206;SDS011;593;53.184;8.216;2022-07-06T03:14:52;4.47;;;0.70;;
1206;SDS011;593;53.184;8.216;2022-07-06T03:17:17;2.53;;;1.53;;
1206;SDS011;593;53.184;8.216;2022-07-06T03:19:42;1.63;;;0.90;;
1206;SDS011;593;53.184;8.216;2022-07-06T03:22:08;1.83;;;0.70;;
1206;SDS011;593;53.184;8.216;2022-07-06T03:24:33;3.93;;;1.10;;
1206;SDS011;593;53.184;8.216;2022-07-06T03:26:58;0.80;;;0.70;;
1206;SDS011;593;53.184;8.216;2022-07-06T03:29:24;3.23;;;1.00;;
1206;SDS011;593;53.184;8.216;2022-07-06T03:31:49;3.63;;;1.00;;
1206;SDS011;593;53.184;8.216;2022-07-06T03:34:14;3.70;;;1.00;;
1206;SDS011;593;53.184;8.216;2022-07-06T03:36:40;1.73;;;1.10;;
1206;SDS011;593;53.184;8.216;2022-07-06T03:39:05;1.47;;;1.07;;
1206;SDS011;593;53.184;8.216;2022-07-06T03:41:31;1.23;;;0.70;;
1206;SDS011;593;53.184;8.216;2022-07-06T03:43:57;1.93;;;0.93;;
1206;SDS011;593;53.184;8.216;2022-07-06T03:46:23;1.13;;;1.03;;
1206;SDS011;593;53.184;8.216;2022-07-06T03:48:48;1.30;;;0.90;;
1206;SDS011;593;53.184;8.216;2022-07-06T03:51:13;2.20;;;0.90;;
1206;SDS011;593;53.184;8.216;2022-07-06T03:53:39;1.67;;;0.70;;
1206;SDS011;593;53.184;8.216;2022-07-06T03:56:04;1.43;;;0.93;;
1206;SDS011;593;53.184;8.216;2022-07-06T03:58:48;2.10;;;1.03;;
1206;SDS011;593;53.184;8.216;2022-07-06T04:01:13;1.73;;;1.17;;
1206;SDS011;593;53.184;8.216;2022-07-06T04:03:39;1.53;;;0.97;;
1206;SDS011;593;53.184;8.216;2022-07-06T04:06:05;4.03;;;1.20;;
1206;SDS011;593;53.184;8.216;2022-07-06T04:08:30;1.37;;;0.80;;
1206;SDS011;593;53.184;8.216;2022-07-06T04:10:55;2.53;;;1.00;;
1206;SDS011;593;53.184;8.216;2022-07-06T04:13:21;3.90;;;1.10;;
1206;SDS011;593;53.184;8.216;2022-07-06T04:15:47;1.93;;;1.07;;
1206;SDS011;593;53.184;8.216;2022-07-06T04:18:12;2.80;;;1.00;;
1206;SDS011;593;53.184;8.216;2022-07-06T04:20:38;1.83;;;1.10;;
1206;SDS011;593;53.184;8.216;2022-07-06T04:23:03;1.87;;;0.80;;
1206;SDS011;593;53.184;8.216;2022-07-06T04:25:28;1.07;;;0.90;;
1206;SDS011;593;53.184;8.216;2022-07-06T04:27:54;3.47;;;1.53;;
1206;SDS011;593;53.184;8.216;2022-07-06T04:30:19;1.30;;;0.90;;
1206;SDS011;593;53.184;8.216;2022-07-06T04:32:44;5.53;;;0.83;;
1206;SDS011;593;53.184;8.216;2022-07-06T04:35:10;1.63;;;0.90;;
1206;SDS011;593;53.184;8.216;2022-07-06T04:37:35;2.03;;;1.07;;
1206;SDS011;593;53.184;8.216;2022-07-06T04:40:01;1.77;;;0.80;;
1206;SDS011;593;53.184;8.216;2022-07-06T04:42:26;1.27;;;1.17;;
1206;SDS011;593;53.184;8.216;2022-07-06T04:44:52;3.33;;;1.00;;
1206;SDS011;593;53.184;8.216;2022-07-06T04:47:17;2.27;;;1.27;;
1206;SDS011;593;53.184;8.216;2022-07-06T04:49:43;1.37;;;0.80;;
1206;SDS011;593;53.184;8.216;2022-07-06T04:52:08;1.13;;;0.80;;
1206;SDS011;593;53.184;8.216;2022-07-06T04:54:33;1.90;;;1.00;;
1206;SDS011;593;53.184;8.216;2022-07-06T04:56:59;2.10;;;0.93;;
1206;SDS011;593;53.184;8.216;2022-07-06T04:59:24;0.80;;;0.80;;
1206;SDS011;593;53.184;8.216;2022-07-06T05:01:49;1.73;;;1.03;;
1206;SDS011;593;53.184;8.216;2022-07-06T05:04:15;2.07;;;1.00;;
1206;SDS011;593;53.184;8.216;2022-07-06T05:06:43;3.00;;;0.90;;
1206;SDS011;593;53.184;8.216;2022-07-06T05:09:08;4.73;;;1.00;;
1206;SDS011;593;53.184;8.216;2022-07-06T05:11:34;0.90;;;0.80;;
1206;SDS011;593;53.184;8.216;2022-07-06T05:13:59;1.07;;;0.97;;
1206;SDS011;593;53.184;8.216;2022-07-06T05:16:25;2.00;;;0.90;;
1206;SDS011;593;53.184;8.216;2022-07-06T05:18:50;2.50;;;1.27;;
1206;SDS011;593;53.184;8.216;2022-07-06T05:21:15;1.50;;;1.03;;
1206;SDS011;593;53.184;8.216;2022-07-06T05:23:41;1.70;;;1.10;;
1206;SDS011;593;53.184;8.216;2022-07-06T05:26:06;1.77;;;0.90;;
1206;SDS011;593;53.184;8.216;2022-07-06T05:28:31;1.23;;;0.90;;
1206;SDS011;593;53.184;8.216;2022-07-06T05:30:57;1.10;;;0.90;;
1206;SDS011;593;53.184;8.216;2022-07-06T05:33:22;1.20;;;1.00;;
1206;SDS011;593;53.184;8.216;2022-07-06T05:35:48;1.43;;;1.10;;
1206;SDS011;593;53.184;8.216;2022-07-06T05:38:13;2.23;;;1.17;;
1206;SDS011;593;53.184;8.216;2022-07-06T05:40:39;3.57;;;0.97;;
1206;SDS011;593;53.184;8.216;2022-07-06T05:43:05;1.43;;;0.80;;
1206;SDS011;593;53.184;8.216;2022-07-06T05:45:30;2.07;;;0.93;;
1206;SDS011;593;53.184;8.216;2022-07-06T05:47:55;3.03;;;0.90;;
1206;SDS011;593;53.184;8.216;2022-07-06T05:50:39;3.70;;;1.00;;
1206;SDS011;593;53.184;8.216;2022-07-06T05:53:05;0.97;;;0.60;;
1206;SDS011;593;53.184;8.216;2022-07-06T05:55:31;1.40;;;0.60;;
1206;SDS011;593;53.184;8.216;2022-07-06T05:57:57;2.20;;;0.80;;
1206;SDS011;593;53.184;8.216;2022-07-06T06:00:23;2.63;;;0.67;;
1206;SDS011;593;53.184;8.216;2022-07-06T06:02:50;0.90;;;0.80;;
1206;SDS011;593;53.184;8.216;2022-07-06T06:05:16;2.30;;;0.60;;
1206;SDS011;593;53.184;8.216;2022-07-06T06:07:42;2.70;;;0.60;;
1206;SDS011;593;53.184;8.216;2022-07-06T06:10:09;0.97;;;0.80;;
1206;SDS011;593;53.184;8.216;2022-07-06T06:12:36;3.53;;;1.00;;
1206;SDS011;593;53.184;8.216;2022-07-06T06:15:02;3.00;;;0.60;;
1206;SDS011;593;53.184;8.216;2022-07-06T06:17:28;2.50;;;0.60;;
1206;SDS011;593;53.184;8.216;2022-07-06T06:19:54;2.50;;;0.60;;
1206;SDS011;593;53.184;8.216;2022-07-06T06:22:19;4.93;;;0.60;;
1206;SDS011;593;53.184;8.216;2022-07-06T06:24:45;1.97;;;0.60;;
1206;SDS011;593;53.184;8.216;2022-07-06T06:27:10;1.67;;;0.57;;
1206;SDS011;593;53.184;8.216;2022-07-06T06:29:36;1.70;;;0.70;;
1206;SDS011;593;53.184;8.216;2022-07-06T06:32:02;0.80;;;0.50;;
1206;SDS011;593;53.184;8.216;2022-07-06T06:34:27;2.17;;;0.70;;
1206;SDS011;593;53.184;8.216;2022-07-06T06:36:52;1.17;;;0.70;;
1206;SDS011;593;53.184;8.216;2022-07-06T06:39:18;2.23;;;0.60;;
1206;SDS011;593;53.184;8.216;2022-07-06T06:41:43;1.60;;;0.60;;
1206;SDS011;593;53.184;8.216;2022-07-06T06:44:08;2.63;;;0.63;;
1206;SDS011;593;53.184;8.216;2022-07-06T06:46:34;1.17;;;0.63;;
1206;SDS011;593;53.184;8.216;2022-07-06T06:48:59;3.27;;;0.57;;
1206;SDS011;593;53.184;8.216;2022-07-06T06:51:25;1.73;;;0.60;;
1206;SDS011;593;53.184;8.216;2022-07-06T06:53:50;2.20;;;0.40;;
1206;SDS011;593;53.184;8.216;2022-07-06T06:56:15;2.60;;;0.57;;
1206;SDS011;593;53.184;8.216;2022-07-06T06:58:41;1.60;;;0.60;;
1206;SDS011;593;53.184;8.216;2022-07-06T07:01:07;0.90;;;0.50;;
1206;SDS011;593;53.184;8.216;2022-07-06T07:03:32;1.10;;;0.50;;
1206;SDS011;593;53.184;8.216;2022-07-06T07:05:58;0.70;;;0.40;;
1206;SDS011;593;53.184;8.216;2022-07-06T07:08:23;1.50;;;0.57;;
1206;SDS011;593;53.184;8.216;2022-07-06T07:10:48;4.03;;;0.50;;
1206;SDS011;593;53.184;8.216;2022-07-06T07:13:14;0.90;;;0.60;;
1206;SDS011;593;53.184;8.216;2022-07-06T07:15:39;1.97;;;0.70;;
1206;SDS011;593;53.184;8.216;2022-07-06T07:18:05;0.73;;;0.50;;
1206;SDS011;593;53.184;8.216;2022-07-06T07:20:30;1.03;;;0.40;;
1206;SDS011;593;53.184;8.216;2022-07-06T07:22:58;2.67;;;0.70;;
1206;SDS011;593;53.184;8.216;2022-07-06T07:25:23;2.30;;;0.50;;
1206;SDS011;593;53.184;8.216;2022-07-06T07:27:48;2.30;;;0.60;;
1206;SDS011;593;53.184;8.216;2022-07-06T07:30:14;1.73;;;0.60;;
1206;SDS011;593;53.184;8.216;2022-07-06T07:32:39;3.27;;;0.43;;
1206;SDS011;593;53.184;8.216;2022-07-06T07:35:07;2.90;;;0.60;;
1206;SDS011;593;53.184;8.216;2022-07-06T07:37:34;2.17;;;0.50;;
1206;SDS011;593;53.184;8.216;2022-07-06T07:39:59;1.30;;;0.80;;
1206;SDS011;593;53.184;8.216;2022-07-06T07:42:25;1.53;;;0.60;;
1206;SDS011;593;53.184;8.216;2022-07-06T07:44:51;0.90;;;0.70;;
1206;SDS011;593;53.184;8.216;2022-07-06T07:47:16;1.40;;;0.50;;
1206;SDS011;593;53.184;8.216;2022-07-06T07:49:41;0.67;;;0.50;;
1206;SDS011;593;53.184;8.216;2022-07-06T07:52:07;1.00;;;0.50;;
1206;SDS011;593;53.184;8.216;2022-07-06T07:54:32;1.30;;;0.70;;
1206;SDS011;593;53.184;8.216;2022-07-06T07:56:58;1.30;;;0.50;;
1206;SDS011;593;53.184;8.216;2022-07-06T07:59:23;1.00;;;0.43;;
1206;SDS011;593;53.184;8.216;2022-07-06T08:01:49;1.37;;;0.57;;
1206;SDS011;593;53.184;8.216;2022-07-06T08:04:14;0.80;;;0.47;;
1206;SDS011;593;53.184;8.216;2022-07-06T08:06:40;0.70;;;0.50;;
1206;SDS011;593;53.184;8.216;2022-07-06T08:09:05;1.17;;;0.50;;
1206;SDS011;593;53.184;8.216;2022-07-06T08:11:32;1.80;;;0.50;;
1206;SDS011;593;53.184;8.216;2022-07-06T08:13:58;0.80;;;0.60;;
1206;SDS011;593;53.184;8.216;2022-07-06T08:16:24;1.67;;;0.60;;
1206;SDS011;593;53.184;8.216;2022-07-06T08:18:49;1.27;;;0.57;;
1206;SDS011;593;53.184;8.216;2022-07-06T08:21:15;2.03;;;0.60;;
1206;SDS011;593;53.184;8.216;2022-07-06T08:23:40;1.87;;;0.57;;
1206;SDS011;593;53.184;8.216;2022-07-06T08:26:05;0.90;;;0.40;;
1206;SDS011;593;53.184;8.216;2022-07-06T08:28:31;3.07;;;0.50;;
1206;SDS011;593;53.184;8.216;2022-07-06T08:30:56;1.53;;;0.50;;
1206;SDS011;593;53.184;8.216;2022-07-06T08:33:22;0.97;;;0.50;;
1206;SDS011;593;53.184;8.216;2022-07-06T08:35:48;1.90;;;0.60;;
1206;SDS011;593;53.184;8.216;2022-07-06T08:38:13;2.73;;;0.60;;
1206;SDS011;593;53.184;8.216;2022-07-06T08:40:38;0.60;;;0.40;;
1206;SDS011;593;53.184;8.216;2022-07-06T08:43:06;1.37;;;0.50;;
1206;SDS011;593;53.184;8.216;2022-07-06T08:45:32;3.40;;;0.53;;
1206;SDS011;593;53.184;8.216;2022-07-06T08:48:02;0.87;;;0.40;;
1206;SDS011;593;53.184;8.216;2022-07-06T08:50:29;0.60;;;0.43;;
1206;SDS011;593;53.184;8.216;2022-07-06T08:52:55;1.07;;;0.40;;
1206;SDS011;593;53.184;8.216;2022-07-06T08:55:20;2.40;;;0.50;;
1206;SDS011;593;53.184;8.216;2022-07-06T08:57:46;1.87;;;0.40;;
1206;SDS011;593;53.184;8.216;2022-07-06T09:00:12;0.77;;;0.50;;
1206;SDS011;593;53.184;8.216;2022-07-06T09:02:38;1.60;;;0.50;;
1206;SDS011;593;53.184;8.216;2022-07-06T09:05:05;1.03;;;0.47;;
1206;SDS011;593;53.184;8.216;2022-07-06T09:07:32;1.60;;;0.50;;
1206;SDS011;593;53.184;8.216;2022-07-06T09:09:59;1.30;;;0.50;;
1206;SDS011;593;53.184;8.216;2022-07-06T09:12:27;2.60;;;0.50;;
1206;SDS011;593;53.184;8.216;2022-07-06T09:14:55;1.80;;;0.50;;
1206;SDS011;593;53.184;8.216;2022-07-06T09:17:24;0.83;;;0.50;;
1206;SDS011;593;53.184;8.216;2022-07-06T09:19:51;1.27;;;0.50;;
1206;SDS011;593;53.184;8.216;2022-07-06T09:22:27;1.53;;;0.50;;
1206;SDS011;593;53.184;8.216;2022-07-06T09:25:06;2.60;;;0.47;;
1206;SDS011;593;53.184;8.216;2022-07-06T09:27:38;4.20;;;0.50;;
1206;SDS011;593;53.184;8.216;2022-07-06T09:30:05;1.00;;;0.47;;
1206;SDS011;593;53.184;8.216;2022-07-06T09:32:32;0.87;;;0.47;;
1206;SDS011;593;53.184;8.216;2022-07-06T09:35:04;0.70;;;0.40;;
1206;SDS011;593;53.184;8.216;2022-07-06T09:37:29;3.43;;;0.50;;
1206;SDS011;593;53.184;8.216;2022-07-06T09:39:55;0.60;;;0.40;;
1206;SDS011;593;53.184;8.216;2022-07-06T09:42:23;0.70;;;0.40;;
1206;SDS011;593;53.184;8.216;2022-07-06T09:44:50;1.00;;;0.50;;
1206;SDS011;593;53.184;8.216;2022-07-06T09:47:15;2.73;;;0.50;;
1206;SDS011;593;53.184;8.216;2022-07-06T09:49:41;0.90;;;0.40;;
1206;SDS011;593;53.184;8.216;2022-07-06T09:52:07;1.27;;;0.40;;
1206;SDS011;593;53.184;8.216;2022-07-06T09:54:34;0.93;;;0.53;;
1206;SDS011;593;53.184;8.216;2022-07-06T09:57:02;0.70;;;0.40;;
1206;SDS011;593;53.184;8.216;2022-07-06T09:59:28;4.93;;;0.57;;
1206;SDS011;593;53.184;8.216;2022-07-06T10:01:56;0.60;;;0.50;;
1206;SDS011;593;53.184;8.216;2022-07-06T10:04:24;3.33;;;0.47;;
1206;SDS011;593;53.184;8.216;2022-07-06T10:06:51;1.13;;;0.40;;
1206;SDS011;593;53.184;8.216;2022-07-06T10:09:18;0.70;;;0.40;;
1206;SDS011;593;53.184;8.216;2022-07-06T10:11:45;1.23;;;0.40;;
1206;SDS011;593;53.184;8.216;2022-07-06T10:14:20;2.20;;;0.40;;
1206;SDS011;593;53.184;8.216;2022-07-06T10:16:48;1.87;;;0.37;;
1206;SDS011;593;53.184;8.216;2022-07-06T10:19:16;0.90;;;0.40;;
1206;SDS011;593;53.184;8.216;2022-07-06T10:21:43;0.60;;;0.40;;
1206;SDS011;593;53.184;8.216;2022-07-06T10:24:09;0.93;;;0.40;;
1206;SDS011;593;53.184;8.216;2022-07-06T10:26:36;0.57;;;0.37;;
1206;SDS011;593;53.184;8.216;2022-07-06T10:29:02;0.60;;;0.30;;
1206;SDS011;593;53.184;8.216;2022-07-06T10:31:29;0.70;;;0.33;;
1206;SDS011;593;53.184;8.216;2022-07-06T10:33:57;0.60;;;0.40;;
1206;SDS011;593;53.184;8.216;2022-07-06T10:36:24;1.17;;;0.40;;
1206;SDS011;593;53.184;8.216;2022-07-06T10:38:51;0.80;;;0.50;;
1206;SDS011;593;53.184;8.216;2022-07-06T10:41:17;0.60;;;0.30;;
1206;SDS011;593;53.184;8.216;2022-07-06T10:43:47;0.83;;;0.50;;
1206;SDS011;593;53.184;8.216;2022-07-06T10:46:14;0.73;;;0.37;;
1206;SDS011;593;53.184;8.216;2022-07-06T10:48:42;1.27;;;0.30;;
1206;SDS011;593;53.184;8.216;2022-07-06T10:51:11;1.00;;;0.37;;
1206;SDS011;593;53.184;8.216;2022-07-06T10:53:38;0.77;;;0.40;;
1206;SDS011;593;53.184;8.216;2022-07-06T10:56:06;1.30;;;0.57;;
1206;SDS011;593;53.184;8.216;2022-07-06T10:58:36;4.03;;;0.37;;
1206;SDS011;593;53.184;8.216;2022-07-06T11:01:18;1.73;;;0.40;;
1206;SDS011;593;53.184;8.216;2022-07-06T11:08:56;1.00;;;0.40;;
1206;SDS011;593;53.184;8.216;2022-07-06T11:11:26;1.00;;;0.50;;
1206;SDS011;593;53.184;8.216;2022-07-06T11:14:12;1.17;;;0.40;;
1206;SDS011;593;53.184;8.216;2022-07-06T11:16:47;0.87;;;0.50;;
1206;SDS011;593;53.184;8.216;2022-07-06T11:19:29;1.17;;;0.40;;
1206;SDS011;593;53.184;8.216;2022-07-06T11:21:56;1.10;;;0.70;;
1206;SDS011;593;53.184;8.216;2022-07-06T11:24:29;1.20;;;0.50;;
1206;SDS011;593;53.184;8.216;2022-07-06T11:26:56;1.00;;;0.50;;
1206;SDS011;593;53.184;8.216;2022-07-06T11:29:25;1.13;;;0.40;;
1206;SDS011;593;53.184;8.216;2022-07-06T11:31:53;0.60;;;0.50;;
1206;SDS011;593;53.184;8.216;2022-07-06T11:36:45;0.90;;;0.40;;
1206;SDS011;593;53.184;8.216;2022-07-06T11:39:11;0.60;;;0.40;;
1206;SDS011;593;53.184;8.216;2022-07-06T11:41:37;0.70;;;0.40;;
1206;SDS011;593;53.184;8.216;2022-07-06T11:44:02;1.83;;;0.40;;
1206;SDS011;593;53.184;8.216;2022-07-06T11:46:34;1.10;;;0.40;;
1206;SDS011;593;53.184;8.216;2022-07-06T11:49:02;0.60;;;0.40;;
1206;SDS011;593;53.184;8.216;2022-07-06T11:51:40;2.00;;;0.40;;
1206;SDS011;593;53.184;8.216;2022-07-06T11:54:10;0.60;;;0.40;;
1206;SDS011;593;53.184;8.216;2022-07-06T11:56:37;1.53;;;0.50;;
1206;SDS011;593;53.184;8.216;2022-07-06T11:59:03;0.60;;;0.40;;
1206;SDS011;593;53.184;8.216;2022-07-06T12:01:30;0.70;;;0.40;;
1206;SDS011;593;53.184;8.216;2022-07-06T12:03:59;1.47;;;0.57;;
1206;SDS011;593;53.184;8.216;2022-07-06T12:06:28;1.23;;;0.40;;
1206;SDS011;593;53.184;8.216;2022-07-06T12:08:58;0.70;;;0.63;;
1206;SDS011;593;53.184;8.216;2022-07-06T12:13:55;0.60;;;0.40;;
1206;SDS011;593;53.184;8.216;2022-07-06T12:16:28;1.20;;;0.40;;
1206;SDS011;593;53.184;8.216;2022-07-06T12:18:55;0.90;;;0.40;;
1206;SDS011;593;53.184;8.216;2022-07-06T12:21:21;2.67;;;0.60;;
1206;SDS011;593;53.184;8.216;2022-07-06T12:23:50;0.70;;;0.40;;
1206;SDS011;593;53.184;8.216;2022-07-06T12:26:18;1.63;;;0.40;;
1206;SDS011;593;53.184;8.216;2022-07-06T12:28:45;0.80;;;0.40;;
1206;SDS011;593;53.184;8.216;2022-07-06T12:31:30;1.00;;;0.50;;
1206;SDS011;593;53.184;8.216;2022-07-06T12:33:56;0.60;;;0.30;;
1206;SDS011;593;53.184;8.216;2022-07-06T12:36:22;1.10;;;0.40;;
1206;SDS011;593;53.184;8.216;2022-07-06T12:38:48;0.60;;;0.40;;
1206;SDS011;593;53.184;8.216;2022-07-06T12:41:29;1.57;;;0.40;;
1206;SDS011;593;53.184;8.216;2022-07-06T12:44:04;0.50;;;0.30;;
1206;SDS011;593;53.184;8.216;2022-07-06T12:49:06;1.40;;;0.40;;
1206;SDS011;593;53.184;8.216;2022-07-06T12:54:28;1.53;;;0.40;;
1206;SDS011;593;53.184;8.216;2022-07-06T12:57:01;1.23;;;0.50;;
1206;SDS011;593;53.184;8.216;2022-07-06T12:59:29;1.30;;;0.50;;
1206;SDS011;593;53.184;8.216;2022-07-06T13:01:55;1.30;;;0.40;;
1206;SDS011;593;53.184;8.216;2022-07-06T13:04:25;0.80;;;0.50;;
1206;SDS011;593;53.184;8.216;2022-07-06T13:06:51;0.57;;;0.30;;
1206;SDS011;593;53.184;8.216;2022-07-06T13:09:17;1.47;;;0.30;;
1206;SDS011;593;53.184;8.216;2022-07-06T13:11:44;1.97;;;0.60;;
1206;SDS011;593;53.184;8.216;2022-07-06T13:14:16;0.73;;;0.40;;
1206;SDS011;593;53.184;8.216;2022-07-06T13:16:42;1.37;;;0.40;;
1206;SDS011;593;53.184;8.216;2022-07-06T13:19:08;0.60;;;0.33;;
1206;SDS011;593;53.184;8.216;2022-07-06T13:21:34;1.00;;;0.47;;
1206;SDS011;593;53.184;8.216;2022-07-06T13:23:59;1.77;;;0.40;;
1206;SDS011;593;53.184;8.216;2022-07-06T13:26:25;2.37;;;0.50;;
1206;SDS011;593;53.184;8.216;2022-07-06T13:28:50;0.87;;;0.40;;
1206;SDS011;593;53.184;8.216;2022-07-06T13:31:16;1.53;;;0.40;;
1206;SDS011;593;53.184;8.216;2022-07-06T13:33:41;0.60;;;0.40;;
1206;SDS011;593;53.184;8.216;2022-07-06T13:36:07;1.40;;;0.50;;
1206;SDS011;593;53.184;8.216;2022-07-06T13:38:32;0.90;;;0.40;;
1206;SDS011;593;53.184;8.216;2022-07-06T13:40:58;1.00;;;0.50;;
1206;SDS011;593;53.184;8.216;2022-07-06T13:43:23;0.70;;;0.50;;
1206;SDS011;593;53.184;8.216;2022-07-06T13:45:48;1.13;;;0.73;;
1206;SDS011;593;53.184;8.216;2022-07-06T13:48:14;0.80;;;0.40;;
1206;SDS011;593;53.184;8.216;2022-07-06T13:50:39;1.27;;;0.70;;
1206;SDS011;593;53.184;8.216;2022-07-06T13:53:05;1.23;;;0.57;;
1206;SDS011;593;53.184;8.216;2022-07-06T13:55:31;0.90;;;0.50;;
1206;SDS011;593;53.184;8.216;2022-07-06T13:57:57;1.10;;;0.40;;
1206;SDS011;593;53.184;8.216;2022-07-06T14:00:24;1.47;;;0.43;;
1206;SDS011;593;53.184;8.216;2022-07-06T14:02:50;0.80;;;0.60;;
1206;SDS011;593;53.184;8.216;2022-07-06T14:05:15;0.60;;;0.43;;
1206;SDS011;593;53.184;8.216;2022-07-06T14:07:41;4.07;;;0.40;;
1206;SDS011;593;53.184;8.216;2022-07-06T14:10:06;1.23;;;0.50;;
1206;SDS011;593;53.184;8.216;2022-07-06T14:12:32;0.97;;;0.40;;
1206;SDS011;593;53.184;8.216;2022-07-06T14:14:57;1.90;;;0.40;;
1206;SDS011;593;53.184;8.216;2022-07-06T14:17:22;0.80;;;0.47;;
1206;SDS011;593;53.184;8.216;2022-07-06T14:19:48;1.03;;;0.70;;
1206;SDS011;593;53.184;8.216;2022-07-06T14:22:14;1.47;;;0.50;;
1206;SDS011;593;53.184;8.216;2022-07-06T14:24:39;2.30;;;0.50;;
1206;SDS011;593;53.184;8.216;2022-07-06T14:27:05;0.60;;;0.50;;
1206;SDS011;593;53.184;8.216;2022-07-06T14:29:30;2.77;;;0.50;;
1206;SDS011;593;53.184;8.216;2022-07-06T14:31:56;1.40;;;0.50;;
1206;SDS011;593;53.184;8.216;2022-07-06T14:34:21;1.60;;;0.50;;
1206;SDS011;593;53.184;8.216;2022-07-06T14:36:46;0.60;;;0.50;;
1206;SDS011;593;53.184;8.216;2022-07-06T14:39:12;0.60;;;0.50;;
1206;SDS011;593;53.184;8.216;2022-07-06T14:41:38;1.03;;;0.40;;
1206;SDS011;593;53.184;8.216;2022-07-06T14:44:04;1.20;;;0.50;;
1206;SDS011;593;53.184;8.216;2022-07-06T14:46:30;1.47;;;0.50;;
1206;SDS011;593;53.184;8.216;2022-07-06T14:48:56;1.40;;;0.53;;
1206;SDS011;593;53.184;8.216;2022-07-06T14:51:21;2.37;;;0.50;;
1206;SDS011;593;53.184;8.216;2022-07-06T14:53:47;1.83;;;0.60;;
1206;SDS011;593;53.184;8.216;2022-07-06T14:56:12;0.70;;;0.50;;
1206;SDS011;593;53.184;8.216;2022-07-06T14:58:38;1.13;;;0.50;;
1206;SDS011;593;53.184;8.216;2022-07-06T15:01:03;1.17;;;0.50;;
1206;SDS011;593;53.184;8.216;2022-07-06T15:03:28;1.17;;;0.60;;
1206;SDS011;593;53.184;8.216;2022-07-06T15:05:54;1.20;;;0.60;;
1206;SDS011;593;53.184;8.216;2022-07-06T15:08:20;1.23;;;0.50;;
1206;SDS011;593;53.184;8.216;2022-07-06T15:10:45;1.37;;;0.53;;
1206;SDS011;593;53.184;8.216;2022-07-06T15:13:11;0.80;;;0.50;;
1206;SDS011;593;53.184;8.216;2022-07-06T15:15:37;0.93;;;0.60;;
1206;SDS011;593;53.184;8.216;2022-07-06T15:18:02;1.30;;;0.60;;
1206;SDS011;593;53.184;8.216;2022-07-06T15:20:28;0.70;;;0.60;;
1206;SDS011;593;53.184;8.216;2022-07-06T15:22:54;1.60;;;0.57;;
1206;SDS011;593;53.184;8.216;2022-07-06T15:25:20;2.50;;;0.60;;
1206;SDS011;593;53.184;8.216;2022-07-06T15:27:45;2.57;;;0.60;;
1206;SDS011;593;53.184;8.216;2022-07-06T15:30:11;1.00;;;0.60;;
1206;SDS011;593;53.184;8.216;2022-07-06T15:32:37;1.93;;;0.60;;
1206;SDS011;593;53.184;8.216;2022-07-06T15:35:02;0.60;;;0.50;;
1206;SDS011;593;53.184;8.216;2022-07-06T15:37:30;0.70;;;0.57;;
1206;SDS011;593;53.184;8.216;2022-07-06T15:39:58;4.30;;;0.60;;